createdAt,value
2023-03-20T00:01:21.701Z,97395.50
2023-03-20T00:03:48.742Z,97391.00
2023-03-20T00:06:21.498Z,97389.41
2023-03-20T00:08:50.047Z,97351.34
2023-03-20T00:11:33.475Z,97389.88
2023-03-20T00:14:06.149Z,97385.19
2023-03-20T00:16:35.683Z,97376.63
2023-03-20T00:19:03.341Z,97375.66
2023-03-20T00:21:31.585Z,97332.94
2023-03-20T00:23:58.844Z,97368.72
2023-03-20T00:26:28.381Z,97349.34
2023-03-20T00:28:55.094Z,97342.91
2023-03-20T00:31:29.207Z,97360.16
2023-03-20T00:33:58.654Z,97281.81
2023-03-20T00:36:25.508Z,97356.94
2023-03-20T00:38:52.437Z,97335.50
2023-03-20T00:41:26.142Z,97355.81
2023-03-20T00:43:59.636Z,97356.47
2023-03-20T00:46:27.148Z,97353.84
2023-03-20T00:48:54.619Z,97346.75
2023-03-20T00:51:21.315Z,97341.78
2023-03-20T00:53:49.200Z,97313.22
2023-03-20T00:56:32.379Z,97270.06
2023-03-20T00:59:02.048Z,97193.03
2023-03-20T01:01:29.498Z,97341.16
2023-03-20T01:03:56.389Z,97316.13
2023-03-20T01:06:22.997Z,97309.56
2023-03-20T01:08:49.573Z,97308.25
2023-03-20T01:11:21.905Z,97313.59
2023-03-20T01:13:48.791Z,97320.38
2023-03-20T01:16:25.659Z,97308.44
2023-03-20T01:18:52.698Z,97303.25
2023-03-20T01:21:20.821Z,97291.19
2023-03-20T01:23:49.318Z,97309.38
2023-03-20T01:26:28.870Z,97303.72
2023-03-20T01:28:55.436Z,97307.59
2023-03-20T01:31:22.027Z,97297.91
2023-03-20T01:33:48.620Z,97305.00
2023-03-20T01:36:17.811Z,97309.88
2023-03-20T01:38:44.764Z,97312.59
2023-03-20T01:41:13.680Z,97293.72
2023-03-20T01:43:40.874Z,97300.53
2023-03-20T01:46:30.735Z,97299.91
2023-03-20T01:49:29.576Z,97292.00
2023-03-20T01:51:57.326Z,97297.16
2023-03-20T01:54:35.924Z,97310.34
2023-03-20T01:57:11.327Z,97295.84
2023-03-20T02:00:11.857Z,97291.34
2023-03-20T02:02:40.408Z,97291.34
2023-03-20T02:05:10.775Z,97249.75
2023-03-20T02:07:39.314Z,97286.34
2023-03-20T02:10:10.915Z,97293.75
2023-03-20T02:12:38.740Z,97282.31
2023-03-20T02:15:07.325Z,97285.53
2023-03-20T02:17:34.179Z,97279.41
2023-03-20T02:20:28.841Z,97285.38
2023-03-20T02:22:55.376Z,97276.84
2023-03-20T02:26:03.621Z,97277.47
2023-03-20T02:28:51.045Z,97273.91
2023-03-20T02:31:50.364Z,97273.13
2023-03-20T02:34:35.830Z,97283.75
2023-03-20T02:37:39.555Z,97279.41
2023-03-20T02:40:30.505Z,97280.06
2023-03-20T02:43:07.587Z,97276.69
2023-03-20T02:45:49.045Z,97221.19
2023-03-20T02:48:37.076Z,97280.69
2023-03-20T02:51:06.373Z,97274.56
2023-03-20T02:54:17.551Z,97278.75
2023-03-20T02:56:49.231Z,97276.19
2023-03-20T02:59:31.050Z,97275.03
2023-03-20T03:02:25.227Z,97270.84
2023-03-20T03:04:57.066Z,97267.94
2023-03-20T03:07:28.896Z,97266.81
2023-03-20T03:10:00.413Z,97266.81
2023-03-20T03:12:31.864Z,97265.19
2023-03-20T03:15:06.281Z,97272.28
2023-03-20T03:17:35.634Z,97271.50
2023-03-20T03:20:08.409Z,97267.16
2023-03-20T03:22:36.591Z,97229.53
2023-03-20T03:25:03.276Z,97260.69
2023-03-20T03:27:37.423Z,97197.47
2023-03-20T03:30:16.428Z,97247.13
2023-03-20T03:33:17.671Z,97259.56
2023-03-20T03:35:46.438Z,97119.22
2023-03-20T03:38:35.253Z,97209.31
2023-03-20T03:41:07.221Z,97261.03
2023-03-20T03:43:47.395Z,96824.78
2023-03-20T03:46:25.412Z,97228.16
2023-03-20T03:48:57.096Z,97245.38
2023-03-20T03:51:28.344Z,97247.78
2023-03-20T03:54:04.347Z,97252.00
2023-03-20T03:56:35.024Z,97246.19
2023-03-20T03:59:08.799Z,97245.69
2023-03-20T04:01:36.716Z,97248.44
2023-03-20T04:04:10.561Z,97252.78
2023-03-20T04:06:37.342Z,97238.75
2023-03-20T04:09:04.042Z,97180.25
2023-03-20T04:11:31.005Z,97246.81
2023-03-20T04:13:57.704Z,97200.06
2023-03-20T04:16:25.268Z,97227.97
2023-03-20T04:18:52.196Z,97255.84
2023-03-20T04:21:19.295Z,97250.06
2023-03-20T04:23:46.211Z,97247.63
2023-03-20T04:26:13.166Z,97249.69
2023-03-20T04:28:39.725Z,97061.78
2023-03-20T04:31:06.866Z,97256.78
2023-03-20T04:33:33.619Z,97258.72
2023-03-20T04:36:00.598Z,97254.69
2023-03-20T04:38:27.409Z,97210.97
2023-03-20T04:40:54.165Z,97256.47
2023-03-20T04:43:20.808Z,97262.41
2023-03-20T04:45:47.634Z,97273.84
2023-03-20T04:48:14.546Z,97206.78
2023-03-20T04:50:41.323Z,97282.28
2023-03-20T04:53:07.979Z,97275.38
2023-03-20T04:55:34.866Z,97199.78
2023-03-20T04:58:01.657Z,97256.84
2023-03-20T05:00:28.314Z,97275.22
2023-03-20T05:02:54.988Z,96833.78
2023-03-20T05:05:22.491Z,97279.09
2023-03-20T05:07:49.783Z,97278.63
2023-03-20T05:10:16.587Z,97287.28
2023-03-20T05:12:43.379Z,97272.63
2023-03-20T05:15:10.876Z,97284.22
2023-03-20T05:17:37.453Z,97168.44
2023-03-20T05:20:05.240Z,97276.84
2023-03-20T05:22:31.877Z,97279.09
2023-03-20T05:24:58.463Z,97159.84
2023-03-20T05:27:25.021Z,97264.91
2023-03-20T05:29:51.656Z,97269.25
2023-03-20T05:32:18.227Z,97271.81
2023-03-20T05:34:44.880Z,97247.75
2023-03-20T05:37:11.922Z,97272.16
2023-03-20T05:39:38.484Z,97269.00
2023-03-20T05:42:05.211Z,97265.47
2023-03-20T05:44:32.178Z,97267.94
2023-03-20T05:46:58.765Z,97265.75
2023-03-20T05:49:25.323Z,97259.03
2023-03-20T05:51:51.927Z,97271.47
2023-03-20T05:54:18.637Z,97260.22
2023-03-20T05:56:45.494Z,97265.56
2023-03-20T05:59:12.347Z,97260.63
2023-03-20T06:01:38.957Z,97387.72
2023-03-20T06:04:05.870Z,97267.69
2023-03-20T06:06:32.600Z,97271.38
2023-03-20T06:08:59.148Z,97234.28
2023-03-20T06:11:25.829Z,97248.16
2023-03-20T06:13:54.634Z,97262.38
2023-03-20T06:16:21.753Z,97250.53
2023-03-20T06:18:49.289Z,97240.28
2023-03-20T06:21:16.240Z,97182.34
2023-03-20T06:23:42.876Z,97204.91
2023-03-20T06:26:09.750Z,97253.28
2023-03-20T06:28:37.261Z,97196.53
2023-03-20T06:31:03.918Z,97095.06
2023-03-20T06:33:30.514Z,97190.91
2023-03-20T06:35:57.796Z,97207.94
2023-03-20T06:38:24.455Z,97241.97
2023-03-20T06:40:51.137Z,97241.94
2023-03-20T06:43:20.710Z,97049.63
2023-03-20T06:45:48.472Z,97244.72
2023-03-20T06:48:16.275Z,97179.22
2023-03-20T06:50:43.013Z,97242.16
2023-03-20T06:53:09.644Z,97128.09
2023-03-20T06:55:37.112Z,97170.66
2023-03-20T06:58:03.786Z,97237.19
2023-03-20T07:00:30.491Z,97237.06
2023-03-20T07:02:57.138Z,97239.22
2023-03-20T07:05:23.998Z,97218.03
2023-03-20T07:07:50.704Z,97194.22
2023-03-20T07:10:17.438Z,96826.63
2023-03-20T07:12:44.693Z,97074.06
2023-03-20T07:15:11.545Z,97123.66
2023-03-20T07:17:38.392Z,97133.28
2023-03-20T07:20:05.681Z,97216.09
2023-03-20T07:22:32.224Z,97221.81
2023-03-20T07:24:58.794Z,97148.56
2023-03-20T07:27:26.340Z,97220.47
2023-03-20T07:29:53.198Z,97166.75
2023-03-20T07:32:20.790Z,97141.88
2023-03-20T07:34:47.673Z,97175.84
2023-03-20T07:37:14.394Z,97210.41
2023-03-20T07:39:41.181Z,97215.78
2023-03-20T07:42:07.800Z,97173.94
2023-03-20T07:44:34.628Z,97208.44
2023-03-20T07:47:01.539Z,97138.16
2023-03-20T07:49:28.100Z,97211.72
2023-03-20T07:51:54.935Z,97215.84
2023-03-20T07:54:21.577Z,97211.50
2023-03-20T07:56:48.308Z,97279.00
2023-03-20T07:59:15.193Z,97146.31
2023-03-20T08:01:42.064Z,97193.84
2023-03-20T08:04:08.965Z,97196.56
2023-03-20T08:06:36.643Z,97197.03
2023-03-20T08:09:03.722Z,97165.13
2023-03-20T08:11:32.562Z,97156.34
2023-03-20T08:14:00.488Z,97192.22
2023-03-20T08:16:27.167Z,97181.47
2023-03-20T08:18:56.190Z,97204.59
2023-03-20T08:21:23.122Z,97120.81
2023-03-20T08:23:49.683Z,97183.34
2023-03-20T08:26:16.624Z,96947.25
2023-03-20T08:28:47.908Z,97021.56
2023-03-20T08:31:15.389Z,97185.06
2023-03-20T08:33:42.048Z,97182.59
2023-03-20T08:36:08.936Z,97175.50
2023-03-20T08:38:35.943Z,97185.06
2023-03-20T08:41:02.779Z,97170.66
2023-03-20T08:43:29.968Z,97169.34
2023-03-20T08:45:56.716Z,97171.69
2023-03-20T08:48:23.692Z,97171.88
2023-03-20T08:50:50.496Z,97147.84
2023-03-20T08:53:17.094Z,97139.16
2023-03-20T08:55:53.693Z,97102.13
2023-03-20T08:58:21.492Z,97162.06
2023-03-20T09:00:48.163Z,97043.47
2023-03-20T09:03:16.574Z,97126.19
2023-03-20T09:05:51.337Z,97112.78
2023-03-20T09:08:18.384Z,97162.97
2023-03-20T09:10:46.687Z,97083.28
2023-03-20T09:13:26.247Z,96977.44
2023-03-20T09:15:54.336Z,97152.53
2023-03-20T09:18:21.221Z,97148.41
2023-03-20T09:20:49.198Z,97155.94
2023-03-20T09:23:16.569Z,97089.22
2023-03-20T09:25:43.251Z,97133.22
2023-03-20T09:28:10.248Z,97135.44
2023-03-20T09:30:37.512Z,97132.94
2023-03-20T09:33:04.516Z,97142.13
2023-03-20T09:35:31.417Z,97102.94
2023-03-20T09:37:58.134Z,97060.78
2023-03-20T09:40:29.790Z,97128.09
2023-03-20T09:43:30.038Z,97069.97
2023-03-20T09:46:04.681Z,97114.28
2023-03-20T09:49:00.318Z,97016.84
2023-03-20T09:51:50.216Z,97076.47
2023-03-20T09:54:25.883Z,97107.50
2023-03-20T09:56:54.888Z,97102.53
2023-03-20T09:59:22.782Z,97059.59
2023-03-20T10:01:53.884Z,97034.63
2023-03-20T10:04:21.051Z,97097.50
2023-03-20T10:06:47.823Z,97096.97
2023-03-20T10:09:25.956Z,97099.56
2023-03-20T10:12:08.368Z,97090.16
2023-03-20T10:14:58.474Z,97095.97
2023-03-20T10:17:34.886Z,97093.94
2023-03-20T10:20:27.879Z,97092.53
2023-03-20T10:22:59.544Z,97081.38
2023-03-20T10:25:40.069Z,97073.66
2023-03-20T10:28:28.254Z,97053.25
2023-03-20T10:31:19.382Z,97071.28
2023-03-20T10:34:17.771Z,96983.41
2023-03-20T10:36:59.503Z,97063.94
2023-03-20T10:39:37.987Z,97053.88
2023-03-20T10:42:20.926Z,96971.19
2023-03-20T10:44:56.237Z,97044.41
2023-03-20T10:47:24.633Z,97041.38
2023-03-20T10:50:00.410Z,97005.97
2023-03-20T10:52:32.378Z,97035.31
2023-03-20T10:55:14.556Z,97036.19
2023-03-20T10:57:48.391Z,97028.78
2023-03-20T11:00:23.575Z,96980.97
2023-03-20T11:02:50.919Z,97022.81
2023-03-20T11:05:30.066Z,97015.94
2023-03-20T11:08:11.772Z,97014.44
2023-03-20T11:10:40.065Z,96962.75
2023-03-20T11:13:25.174Z,96995.47
2023-03-20T11:15:53.752Z,96988.81
2023-03-20T11:18:20.713Z,96995.84
2023-03-20T11:20:56.505Z,96993.41
2023-03-20T11:23:33.251Z,96988.44
2023-03-20T11:26:01.000Z,96970.56
2023-03-20T11:28:35.106Z,96979.66
2023-03-20T11:31:13.850Z,96973.84
2023-03-20T11:33:46.699Z,96965.50
2023-03-20T11:36:24.336Z,96962.28
2023-03-20T11:38:53.004Z,96880.56
2023-03-20T11:41:24.744Z,96905.00
2023-03-20T11:43:51.689Z,96842.16
2023-03-20T11:46:21.466Z,96955.94
2023-03-20T11:48:48.102Z,96921.81
2023-03-20T11:51:20.346Z,96942.13
2023-03-20T11:53:48.104Z,96937.19
2023-03-20T11:56:20.769Z,96937.84
2023-03-20T11:59:14.724Z,96933.28
2023-03-20T12:01:48.771Z,96936.59
2023-03-20T12:04:20.639Z,96933.91
2023-03-20T12:06:54.148Z,96847.78
2023-03-20T12:09:42.689Z,96919.91
2023-03-20T12:12:13.992Z,96876.34
2023-03-20T12:14:45.841Z,96920.59
2023-03-20T12:17:31.252Z,96918.25
2023-03-20T12:20:03.998Z,96783.06
2023-03-20T12:22:38.597Z,96866.94
2023-03-20T12:25:50.784Z,96913.28
2023-03-20T12:28:55.214Z,96913.47
2023-03-20T12:31:45.720Z,96773.97
2023-03-20T12:34:28.227Z,96902.56
2023-03-20T12:36:58.492Z,96900.84
2023-03-20T12:39:29.822Z,96900.88
2023-03-20T12:42:11.974Z,96890.72
2023-03-20T12:44:54.056Z,96899.44
2023-03-20T12:47:52.022Z,96903.09
2023-03-20T12:50:33.595Z,96892.63
2023-03-20T12:53:34.317Z,96893.44
2023-03-20T12:56:25.240Z,96898.19
2023-03-20T12:59:01.764Z,96880.97
2023-03-20T13:01:36.722Z,96870.97
2023-03-20T13:04:34.499Z,96875.41
2023-03-20T13:07:03.197Z,96873.66
2023-03-20T13:09:48.029Z,96869.59
2023-03-20T13:12:30.005Z,96873.81
2023-03-20T13:15:22.100Z,96877.06
2023-03-20T13:17:57.883Z,96855.16
2023-03-20T13:20:42.779Z,96869.78
2023-03-20T13:23:36.182Z,96859.81
2023-03-20T13:26:24.492Z,96743.16
2023-03-20T13:29:15.654Z,96863.72
2023-03-20T13:34:05.372Z,96662.19
2023-03-20T13:37:51.180Z,96874.03
2023-03-20T13:40:25.984Z,96770.84
2023-03-20T13:42:55.342Z,96864.94
2023-03-20T13:46:49.969Z,96855.75
2023-03-20T13:49:27.002Z,96861.84
2023-03-20T13:53:35.342Z,96852.53
2023-03-20T13:56:25.197Z,96769.16
2023-03-20T13:58:51.791Z,96850.38
2023-03-20T14:01:33.359Z,96844.78
2023-03-20T14:04:02.435Z,96829.44
2023-03-20T14:06:32.152Z,96837.34
2023-03-20T14:08:59.972Z,96835.09
2023-03-20T14:11:35.356Z,96820.28
2023-03-20T14:14:27.499Z,96828.28
2023-03-20T14:17:30.859Z,96830.56
2023-03-20T14:20:09.289Z,96832.28
2023-03-20T14:22:40.932Z,96545.78
2023-03-20T14:25:18.892Z,96795.69
2023-03-20T14:27:57.735Z,96831.84
2023-03-20T14:30:30.377Z,96818.69
2023-03-20T14:33:07.514Z,96793.59
2023-03-20T14:35:42.597Z,96811.59
2023-03-20T14:38:26.297Z,96812.28
2023-03-20T14:41:11.292Z,96817.25
2023-03-20T14:43:59.665Z,96804.41
2023-03-20T14:46:39.577Z,96810.38
2023-03-20T14:49:26.167Z,96814.88
2023-03-20T14:52:00.336Z,96812.81
2023-03-20T14:54:31.416Z,96815.00
2023-03-20T14:57:19.927Z,96801.28
2023-03-20T14:59:49.995Z,96809.97
2023-03-20T15:02:35.371Z,96811.72
2023-03-20T15:05:02.380Z,96811.03
2023-03-20T15:07:31.501Z,96782.88
2023-03-20T15:10:02.866Z,96847.25
2023-03-20T15:12:37.324Z,96519.28
2023-03-20T15:15:22.803Z,96768.84
2023-03-20T15:17:49.445Z,96807.50
2023-03-20T15:20:22.133Z,96816.31
2023-03-20T15:22:55.206Z,96806.09
2023-03-20T15:25:28.722Z,96805.59
2023-03-20T15:27:55.630Z,96802.44
2023-03-20T15:30:23.503Z,96811.44
2023-03-20T15:32:54.148Z,96794.72
2023-03-20T15:35:23.568Z,96785.31
2023-03-20T15:37:53.458Z,96792.47
2023-03-20T15:40:43.758Z,96797.56
2023-03-20T15:43:19.335Z,96798.56
2023-03-20T15:45:46.053Z,96771.06
2023-03-20T15:48:21.013Z,96807.00
2023-03-20T15:50:57.591Z,96804.00
2023-03-20T15:53:30.908Z,96802.97
2023-03-20T15:56:18.244Z,96813.56
2023-03-20T15:58:49.002Z,96827.06
2023-03-20T16:01:21.520Z,96785.16
2023-03-20T16:03:49.704Z,96836.69
2023-03-20T16:06:20.826Z,96829.84
2023-03-20T16:09:06.598Z,96839.25
2023-03-20T16:11:39.610Z,96835.50
2023-03-20T16:14:10.917Z,96829.13
2023-03-20T16:16:37.896Z,96839.88
2023-03-20T16:19:07.854Z,96812.38
2023-03-20T16:21:39.512Z,96855.50
2023-03-20T16:24:15.755Z,96871.66
2023-03-20T16:26:45.647Z,96870.97
2023-03-20T16:29:15.484Z,96848.06
2023-03-20T16:31:49.968Z,96878.16
2023-03-20T16:34:23.991Z,96852.06
2023-03-20T16:36:57.353Z,96845.69
2023-03-20T16:39:28.153Z,96892.13
2023-03-20T16:42:24.821Z,96893.84
2023-03-20T16:44:58.572Z,96894.59
2023-03-20T16:47:35.121Z,96895.56
2023-03-20T16:50:17.653Z,96890.53
2023-03-20T16:52:58.496Z,96883.38
2023-03-20T16:55:29.691Z,96848.97
2023-03-20T16:58:03.602Z,96847.94
2023-03-20T17:00:52.034Z,96849.53
2023-03-20T17:03:26.387Z,96908.13
2023-03-20T17:05:57.900Z,96911.78
2023-03-20T17:08:37.600Z,96912.31
2023-03-20T17:11:17.638Z,96915.50
2023-03-20T17:13:44.294Z,96921.09
2023-03-20T17:16:16.195Z,96925.91
2023-03-20T17:18:45.376Z,96944.63
2023-03-20T17:21:12.509Z,96879.81
2023-03-20T17:23:39.924Z,96932.31
2023-03-20T17:26:12.706Z,96931.09
2023-03-20T17:28:39.549Z,96935.50
2023-03-20T17:31:06.575Z,96939.50
2023-03-20T17:33:33.801Z,96938.69
2023-03-20T17:36:00.999Z,96936.69
2023-03-20T17:38:27.651Z,96945.13
2023-03-20T17:40:54.308Z,96890.16
2023-03-20T17:43:21.062Z,96902.53
2023-03-20T17:45:48.247Z,96895.72
2023-03-20T17:48:18.298Z,96925.22
2023-03-20T17:50:46.641Z,96973.75
2023-03-20T17:53:23.973Z,96976.06
2023-03-20T17:55:52.533Z,96971.31
2023-03-20T17:58:22.656Z,96970.91
2023-03-20T18:00:51.528Z,96952.19
2023-03-20T18:03:18.846Z,96967.31
2023-03-20T18:05:48.056Z,96968.94
2023-03-20T18:08:21.333Z,96959.38
2023-03-20T18:10:53.655Z,96974.47
2023-03-20T18:13:21.699Z,96925.44
2023-03-20T18:15:49.879Z,96968.91
2023-03-20T18:18:17.309Z,96962.50
2023-03-20T18:20:45.774Z,96689.78
2023-03-20T18:23:12.917Z,96976.88
2023-03-20T18:25:40.243Z,96930.56
2023-03-20T18:28:13.361Z,96984.75
2023-03-20T18:30:41.474Z,96988.66
2023-03-20T18:33:08.712Z,96984.59
2023-03-20T18:35:37.248Z,96977.28
2023-03-20T18:38:04.554Z,96998.72
2023-03-20T18:40:38.245Z,96949.59
2023-03-20T18:43:05.482Z,96993.69
2023-03-20T18:45:32.787Z,96989.16
2023-03-20T18:47:59.457Z,96991.97
2023-03-20T18:50:32.141Z,96997.28
2023-03-20T18:52:59.910Z,96992.47
2023-03-20T18:55:29.196Z,97001.84
2023-03-20T18:57:56.380Z,96988.31
2023-03-20T19:00:40.161Z,96987.38
2023-03-20T19:03:09.123Z,96994.88
2023-03-20T19:05:36.057Z,96987.19
2023-03-20T19:08:03.519Z,96989.88
2023-03-20T19:10:36.514Z,96940.34
2023-03-20T19:13:05.749Z,96993.97
2023-03-20T19:15:38.684Z,96991.56
2023-03-20T19:18:08.386Z,96994.63
2023-03-20T19:20:43.655Z,96914.69
2023-03-20T19:23:15.999Z,96990.53
2023-03-20T19:25:46.198Z,96795.56
2023-03-20T19:28:34.507Z,96994.38
2023-03-20T19:31:05.211Z,96983.84
2023-03-20T19:33:33.402Z,96859.50
2023-03-20T19:36:11.819Z,96992.63
2023-03-20T19:38:38.461Z,96992.13
2023-03-20T19:41:05.619Z,96963.41
2023-03-20T19:43:32.444Z,96994.47
2023-03-20T19:45:59.549Z,96994.50
2023-03-20T19:51:22.104Z,96998.91
2023-03-20T19:53:50.348Z,96995.69
2023-03-20T19:56:19.309Z,96977.25
2023-03-20T19:58:46.235Z,96998.09
2023-03-20T20:01:18.592Z,97002.44
2023-03-20T20:03:46.205Z,96989.00
2023-03-20T20:06:12.821Z,97001.13
2023-03-20T20:08:47.915Z,97010.63
2023-03-20T20:11:16.783Z,96998.78
2023-03-20T20:14:04.187Z,96930.41
2023-03-20T20:16:30.806Z,97008.66
2023-03-20T20:18:57.589Z,96997.00
2023-03-20T20:22:17.165Z,97001.44
2023-03-20T20:24:10.936Z,97011.91
2023-03-20T20:26:44.910Z,97012.13
2023-03-20T20:29:14.517Z,96961.34
2023-03-20T20:31:41.614Z,97009.03
2023-03-20T20:35:14.310Z,97008.84
2023-03-20T20:39:41.982Z,96868.84
2023-03-20T20:42:08.731Z,96944.97
2023-03-20T20:44:35.381Z,97003.75
2023-03-20T20:47:02.092Z,96945.47
2023-03-20T20:49:28.880Z,97011.78
2023-03-20T20:51:55.823Z,96959.91
2023-03-20T20:54:22.436Z,96998.88
2023-03-20T20:56:49.069Z,96997.16
2023-03-20T20:59:15.881Z,97000.34
2023-03-20T21:01:42.650Z,96992.31
2023-03-20T21:04:09.509Z,96994.81
2023-03-20T21:07:05.802Z,96976.50
2023-03-20T21:09:24.388Z,96996.50
2023-03-20T21:11:50.988Z,96987.06
2023-03-20T21:14:17.568Z,96990.00
2023-03-20T21:16:44.136Z,96987.28
2023-03-20T21:19:10.758Z,96991.09
2023-03-20T21:21:39.233Z,96987.44
2023-03-20T21:24:06.973Z,96946.25
2023-03-20T21:26:33.547Z,96978.00
2023-03-20T21:29:00.139Z,96986.06
2023-03-20T21:31:30.901Z,96942.69
2023-03-20T21:33:58.078Z,96986.09
2023-03-20T21:36:24.834Z,96981.53
2023-03-20T21:39:07.812Z,96978.53
2023-03-20T21:41:37.762Z,96980.72
2023-03-20T21:44:05.522Z,96976.00
2023-03-20T22:03:33.750Z,96975.50
2023-03-20T22:15:23.327Z,96974.03
2023-03-20T22:23:35.197Z,96966.84
2023-03-20T22:26:11.278Z,96831.81
2023-03-20T22:29:09.490Z,96934.06
2023-03-20T22:31:48.235Z,96973.03
2023-03-20T22:42:49.399Z,96991.69
2023-03-20T22:45:09.796Z,96989.78
2023-03-20T22:47:36.834Z,96927.66
2023-03-20T22:50:03.672Z,96995.59
2023-03-20T22:52:49.394Z,96896.94
2023-03-20T22:55:17.751Z,96994.56
2023-03-20T22:57:56.169Z,96986.78
2023-03-20T23:00:30.664Z,96983.50
2023-03-20T23:03:06.713Z,96979.44
2023-03-20T23:05:41.341Z,96970.13
2023-03-20T23:08:08.968Z,96977.97
2023-03-20T23:10:38.004Z,96976.66
2023-03-20T23:13:04.919Z,96976.63
2023-03-20T23:15:31.840Z,96949.16
2023-03-20T23:17:58.950Z,96972.69
2023-03-20T23:20:25.661Z,96970.88
2023-03-20T23:22:52.201Z,96968.72
2023-03-20T23:25:31.091Z,96873.50
2023-03-20T23:28:06.167Z,96965.50
2023-03-20T23:30:41.967Z,96903.25
2023-03-20T23:33:10.902Z,96920.06
2023-03-20T23:35:37.649Z,96953.81
2023-03-20T23:38:04.242Z,96953.66
2023-03-20T23:40:31.139Z,96862.00
2023-03-20T23:42:57.820Z,96862.34
2023-03-20T23:45:24.463Z,96949.22
2023-03-20T23:47:51.258Z,96523.41
2023-03-20T23:50:30.096Z,96947.22
2023-03-20T23:53:13.046Z,96936.25
2023-03-20T23:55:46.207Z,96877.03
2023-03-20T23:58:13.182Z,96932.53
